sensor_id;sensor_type;location;lat;lon;timestamp;temperature;humidity
9808;DHT22;4943;52.550;13.462;2023-04-24T00:01:46;15.00;99.90
9808;DHT22;4943;52.550;13.462;2023-04-24T00:04:14;15.00;99.90
9808;DHT22;4943;52.550;13.462;2023-04-24T00:06:44;15.00;99.90
9808;DHT22;4943;52.550;13.462;2023-04-24T00:09:16;15.00;99.90
9808;DHT22;4943;52.550;13.462;2023-04-24T00:11:44;15.00;99.90
9808;DHT22;4943;52.550;13.462;2023-04-24T00:14:12;15.00;99.90
9808;DHT22;4943;52.550;13.462;2023-04-24T00:16:40;15.00;99.90
9808;DHT22;4943;52.550;13.462;2023-04-24T00:19:09;15.00;99.90
9808;DHT22;4943;52.550;13.462;2023-04-24T00:21:38;14.90;99.90
9808;DHT22;4943;52.550;13.462;2023-04-24T00:24:07;14.90;99.90
9808;DHT22;4943;52.550;13.462;2023-04-24T00:26:36;14.90;99.90
9808;DHT22;4943;52.550;13.462;2023-04-24T00:29:04;14.80;99.90
9808;DHT22;4943;52.550;13.462;2023-04-24T00:31:32;14.80;99.90
9808;DHT22;4943;52.550;13.462;2023-04-24T00:34:01;14.80;99.90
9808;DHT22;4943;52.550;13.462;2023-04-24T00:36:31;14.80;99.90
9808;DHT22;4943;52.550;13.462;2023-04-24T00:38:59;14.80;99.90
9808;DHT22;4943;52.550;13.462;2023-04-24T00:41:27;14.70;99.90
9808;DHT22;4943;52.550;13.462;2023-04-24T00:43:55;14.70;99.90
9808;DHT22;4943;52.550;13.462;2023-04-24T00:46:23;14.70;99.90
9808;DHT22;4943;52.550;13.462;2023-04-24T00:48:52;14.70;99.90
9808;DHT22;4943;52.550;13.462;2023-04-24T00:51:20;14.70;99.90
9808;DHT22;4943;52.550;13.462;2023-04-24T00:53:49;14.70;99.90
9808;DHT22;4943;52.550;13.462;2023-04-24T00:56:17;14.70;99.90
9808;DHT22;4943;52.550;13.462;2023-04-24T00:58:47;14.70;99.90
9808;DHT22;4943;52.550;13.462;2023-04-24T01:01:15;14.70;99.90
9808;DHT22;4943;52.550;13.462;2023-04-24T01:03:44;14.70;99.90
9808;DHT22;4943;52.550;13.462;2023-04-24T01:06:12;14.70;99.90
9808;DHT22;4943;52.550;13.462;2023-04-24T01:08:41;14.60;99.90
9808;DHT22;4943;52.550;13.462;2023-04-24T01:11:11;14.60;99.90
9808;DHT22;4943;52.550;13.462;2023-04-24T01:13:39;14.60;99.90
9808;DHT22;4943;52.550;13.462;2023-04-24T01:16:07;14.60;99.90
9808;DHT22;4943;52.550;13.462;2023-04-24T01:18:35;14.60;99.90
9808;DHT22;4943;52.550;13.462;2023-04-24T01:21:05;14.60;99.90
9808;DHT22;4943;52.550;13.462;2023-04-24T01:23:36;14.60;99.90
9808;DHT22;4943;52.550;13.462;2023-04-24T01:26:04;14.60;99.90
9808;DHT22;4943;52.550;13.462;2023-04-24T01:28:33;14.60;99.90
9808;DHT22;4943;52.550;13.462;2023-04-24T01:31:01;14.60;99.90
9808;DHT22;4943;52.550;13.462;2023-04-24T01:33:29;14.60;99.90
9808;DHT22;4943;52.550;13.462;2023-04-24T01:35:57;14.60;99.90
9808;DHT22;4943;52.550;13.462;2023-04-24T01:38:25;14.70;99.90
9808;DHT22;4943;52.550;13.462;2023-04-24T01:40:55;14.70;99.90
9808;DHT22;4943;52.550;13.462;2023-04-24T01:43:23;14.70;99.90
9808;DHT22;4943;52.550;13.462;2023-04-24T01:45:52;14.70;99.90
9808;DHT22;4943;52.550;13.462;2023-04-24T01:48:22;14.70;99.90
9808;DHT22;4943;52.550;13.462;2023-04-24T01:50:50;14.70;99.90
9808;DHT22;4943;52.550;13.462;2023-04-24T01:53:18;14.70;99.90
9808;DHT22;4943;52.550;13.462;2023-04-24T01:55:46;14.70;99.90
9808;DHT22;4943;52.550;13.462;2023-04-24T01:58:16;14.70;99.90
9808;DHT22;4943;52.550;13.462;2023-04-24T02:00:44;14.70;99.90
9808;DHT22;4943;52.550;13.462;2023-04-24T02:03:12;14.70;99.90
9808;DHT22;4943;52.550;13.462;2023-04-24T02:05:41;14.70;99.90
9808;DHT22;4943;52.550;13.462;2023-04-24T02:08:11;14.70;99.90
9808;DHT22;4943;52.550;13.462;2023-04-24T02:10:39;14.70;99.90
9808;DHT22;4943;52.550;13.462;2023-04-24T02:13:07;14.70;99.90
9808;DHT22;4943;52.550;13.462;2023-04-24T02:15:36;14.60;99.90
9808;DHT22;4943;52.550;13.462;2023-04-24T02:18:04;14.60;99.90
9808;DHT22;4943;52.550;13.462;2023-04-24T02:20:33;14.60;99.90
9808;DHT22;4943;52.550;13.462;2023-04-24T02:23:02;14.60;99.90
9808;DHT22;4943;52.550;13.462;2023-04-24T02:25:30;14.50;99.90
9808;DHT22;4943;52.550;13.462;2023-04-24T02:27:58;14.50;99.90
9808;DHT22;4943;52.550;13.462;2023-04-24T02:30:26;14.60;99.90
9808;DHT22;4943;52.550;13.462;2023-04-24T02:32:55;14.60;99.90
9808;DHT22;4943;52.550;13.462;2023-04-24T02:35:23;14.60;99.90
9808;DHT22;4943;52.550;13.462;2023-04-24T02:37:51;14.60;99.90
9808;DHT22;4943;52.550;13.462;2023-04-24T02:40:19;14.60;99.90
9808;DHT22;4943;52.550;13.462;2023-04-24T02:42:47;14.60;99.90
9808;DHT22;4943;52.550;13.462;2023-04-24T02:45:16;14.60;99.90
9808;DHT22;4943;52.550;13.462;2023-04-24T02:47:44;14.60;99.90
9808;DHT22;4943;52.550;13.462;2023-04-24T02:50:13;14.60;99.90
9808;DHT22;4943;52.550;13.462;2023-04-24T02:52:41;14.60;99.90
9808;DHT22;4943;52.550;13.462;2023-04-24T02:55:10;14.60;99.90
9808;DHT22;4943;52.550;13.462;2023-04-24T02:57:38;14.60;99.90
9808;DHT22;4943;52.550;13.462;2023-04-24T03:00:08;14.60;99.90
9808;DHT22;4943;52.550;13.462;2023-04-24T03:02:36;14.60;99.90
9808;DHT22;4943;52.550;13.462;2023-04-24T03:05:05;14.60;99.90
9808;DHT22;4943;52.550;13.462;2023-04-24T03:07:35;14.60;99.90
9808;DHT22;4943;52.550;13.462;2023-04-24T03:10:04;14.60;99.90
9808;DHT22;4943;52.550;13.462;2023-04-24T03:12:32;14.50;99.90
9808;DHT22;4943;52.550;13.462;2023-04-24T03:15:00;14.60;99.90
9808;DHT22;4943;52.550;13.462;2023-04-24T03:17:29;14.60;99.90
9808;DHT22;4943;52.550;13.462;2023-04-24T03:19:58;14.60;99.90
9808;DHT22;4943;52.550;13.462;2023-04-24T03:22:26;14.60;99.90
9808;DHT22;4943;52.550;13.462;2023-04-24T03:24:55;14.60;99.90
9808;DHT22;4943;52.550;13.462;2023-04-24T03:27:24;14.50;99.90
9808;DHT22;4943;52.550;13.462;2023-04-24T03:29:52;14.60;99.90
9808;DHT22;4943;52.550;13.462;2023-04-24T03:32:22;14.60;99.90
9808;DHT22;4943;52.550;13.462;2023-04-24T03:34:51;14.60;99.90
9808;DHT22;4943;52.550;13.462;2023-04-24T03:37:19;14.60;99.90
9808;DHT22;4943;52.550;13.462;2023-04-24T03:39:47;14.70;99.90
9808;DHT22;4943;52.550;13.462;2023-04-24T03:42:16;14.70;99.90
9808;DHT22;4943;52.550;13.462;2023-04-24T03:44:44;14.70;99.90
9808;DHT22;4943;52.550;13.462;2023-04-24T03:47:12;14.70;99.90
9808;DHT22;4943;52.550;13.462;2023-04-24T03:49:41;14.70;99.90
9808;DHT22;4943;52.550;13.462;2023-04-24T03:52:09;14.70;99.90
9808;DHT22;4943;52.550;13.462;2023-04-24T03:54:37;14.80;99.90
9808;DHT22;4943;52.550;13.462;2023-04-24T03:57:05;14.80;99.90
9808;DHT22;4943;52.550;13.462;2023-04-24T03:59:35;14.80;99.90
9808;DHT22;4943;52.550;13.462;2023-04-24T04:02:03;14.80;99.90
9808;DHT22;4943;52.550;13.462;2023-04-24T04:04:31;14.80;99.90
9808;DHT22;4943;52.550;13.462;2023-04-24T04:06:59;14.80;99.90
9808;DHT22;4943;52.550;13.462;2023-04-24T04:09:29;14.80;99.90
9808;DHT22;4943;52.550;13.462;2023-04-24T04:11:57;14.90;99.90
9808;DHT22;4943;52.550;13.462;2023-04-24T04:14:27;14.90;99.90
9808;DHT22;4943;52.550;13.462;2023-04-24T04:16:56;14.90;99.90
9808;DHT22;4943;52.550;13.462;2023-04-24T04:19:24;14.90;99.90
9808;DHT22;4943;52.550;13.462;2023-04-24T04:21:52;14.90;99.90
9808;DHT22;4943;52.550;13.462;2023-04-24T04:24:22;14.90;99.90
9808;DHT22;4943;52.550;13.462;2023-04-24T04:26:51;14.90;99.90
9808;DHT22;4943;52.550;13.462;2023-04-24T04:29:19;15.00;99.90
9808;DHT22;4943;52.550;13.462;2023-04-24T04:31:47;15.00;99.90
9808;DHT22;4943;52.550;13.462;2023-04-24T04:34:16;15.10;99.90
9808;DHT22;4943;52.550;13.462;2023-04-24T04:36:45;15.00;99.90
9808;DHT22;4943;52.550;13.462;2023-04-24T04:39:13;15.10;99.90
9808;DHT22;4943;52.550;13.462;2023-04-24T04:41:43;15.10;99.90
9808;DHT22;4943;52.550;13.462;2023-04-24T04:44:13;15.00;99.90
9808;DHT22;4943;52.550;13.462;2023-04-24T04:46:41;15.10;99.90
9808;DHT22;4943;52.550;13.462;2023-04-24T04:49:10;15.10;99.90
9808;DHT22;4943;52.550;13.462;2023-04-24T04:51:41;15.10;99.90
9808;DHT22;4943;52.550;13.462;2023-04-24T04:54:09;15.20;99.90
9808;DHT22;4943;52.550;13.462;2023-04-24T04:56:37;15.20;99.90
9808;DHT22;4943;52.550;13.462;2023-04-24T04:59:05;15.20;99.90
9808;DHT22;4943;52.550;13.462;2023-04-24T05:01:34;15.30;99.90
9808;DHT22;4943;52.550;13.462;2023-04-24T05:04:02;15.30;99.90
9808;DHT22;4943;52.550;13.462;2023-04-24T05:06:30;15.40;99.90
9808;DHT22;4943;52.550;13.462;2023-04-24T05:09:00;15.40;99.90
9808;DHT22;4943;52.550;13.462;2023-04-24T05:11:28;15.40;99.90
9808;DHT22;4943;52.550;13.462;2023-04-24T05:13:56;15.50;99.90
9808;DHT22;4943;52.550;13.462;2023-04-24T05:16:24;15.60;99.90
9808;DHT22;4943;52.550;13.462;2023-04-24T05:18:52;15.60;99.90
9808;DHT22;4943;52.550;13.462;2023-04-24T05:21:20;15.60;99.90
9808;DHT22;4943;52.550;13.462;2023-04-24T05:23:48;15.60;99.90
9808;DHT22;4943;52.550;13.462;2023-04-24T05:26:18;15.60;99.90
9808;DHT22;4943;52.550;13.462;2023-04-24T05:28:46;15.60;99.90
9808;DHT22;4943;52.550;13.462;2023-04-24T05:31:14;15.60;99.90
9808;DHT22;4943;52.550;13.462;2023-04-24T05:33:42;15.70;99.90
9808;DHT22;4943;52.550;13.462;2023-04-24T05:36:10;15.70;99.90
9808;DHT22;4943;52.550;13.462;2023-04-24T05:38:39;15.70;99.90
9808;DHT22;4943;52.550;13.462;2023-04-24T05:41:07;15.80;99.90
9808;DHT22;4943;52.550;13.462;2023-04-24T05:43:37;15.80;99.90
9808;DHT22;4943;52.550;13.462;2023-04-24T05:46:05;15.90;99.90
9808;DHT22;4943;52.550;13.462;2023-04-24T05:48:33;15.90;99.90
9808;DHT22;4943;52.550;13.462;2023-04-24T05:51:01;16.00;99.90
9808;DHT22;4943;52.550;13.462;2023-04-24T05:53:29;16.00;99.90
9808;DHT22;4943;52.550;13.462;2023-04-24T05:55:57;16.00;99.90
9808;DHT22;4943;52.550;13.462;2023-04-24T05:58:25;16.10;99.90
9808;DHT22;4943;52.550;13.462;2023-04-24T06:00:55;16.00;99.90
9808;DHT22;4943;52.550;13.462;2023-04-24T06:03:25;16.00;99.90
9808;DHT22;4943;52.550;13.462;2023-04-24T06:05:53;16.00;99.90
9808;DHT22;4943;52.550;13.462;2023-04-24T06:08:21;16.00;99.90
9808;DHT22;4943;52.550;13.462;2023-04-24T06:10:49;16.00;99.90
9808;DHT22;4943;52.550;13.462;2023-04-24T06:13:18;16.00;99.90
9808;DHT22;4943;52.550;13.462;2023-04-24T06:15:46;16.00;99.90
9808;DHT22;4943;52.550;13.462;2023-04-24T06:18:15;16.10;99.90
9808;DHT22;4943;52.550;13.462;2023-04-24T06:20:44;16.10;99.90
9808;DHT22;4943;52.550;13.462;2023-04-24T06:23:13;16.20;99.90
9808;DHT22;4943;52.550;13.462;2023-04-24T06:25:41;16.30;99.90
9808;DHT22;4943;52.550;13.462;2023-04-24T06:28:09;16.30;99.90
9808;DHT22;4943;52.550;13.462;2023-04-24T06:30:37;16.30;99.90
9808;DHT22;4943;52.550;13.462;2023-04-24T06:33:05;16.30;99.90
9808;DHT22;4943;52.550;13.462;2023-04-24T06:35:47;16.40;99.90
9808;DHT22;4943;52.550;13.462;2023-04-24T06:38:17;16.40;99.90
9808;DHT22;4943;52.550;13.462;2023-04-24T06:40:45;16.50;99.90
9808;DHT22;4943;52.550;13.462;2023-04-24T06:43:13;16.50;99.90
9808;DHT22;4943;52.550;13.462;2023-04-24T06:45:41;16.60;99.90
9808;DHT22;4943;52.550;13.462;2023-04-24T06:48:11;16.70;99.90
9808;DHT22;4943;52.550;13.462;2023-04-24T06:50:39;16.80;99.90
9808;DHT22;4943;52.550;13.462;2023-04-24T06:53:08;16.90;99.90
9808;DHT22;4943;52.550;13.462;2023-04-24T06:55:39;17.00;99.90
9808;DHT22;4943;52.550;13.462;2023-04-24T06:58:08;17.00;99.90
9808;DHT22;4943;52.550;13.462;2023-04-24T07:00:36;17.10;99.90
9808;DHT22;4943;52.550;13.462;2023-04-24T07:03:04;17.30;99.90
9808;DHT22;4943;52.550;13.462;2023-04-24T07:05:33;17.40;99.90
9808;DHT22;4943;52.550;13.462;2023-04-24T07:08:01;17.50;99.90
9808;DHT22;4943;52.550;13.462;2023-04-24T07:10:32;17.50;99.90
9808;DHT22;4943;52.550;13.462;2023-04-24T07:13:00;17.50;99.90
9808;DHT22;4943;52.550;13.462;2023-04-24T07:15:29;17.60;99.90
9808;DHT22;4943;52.550;13.462;2023-04-24T07:17:59;17.70;99.90
9808;DHT22;4943;52.550;13.462;2023-04-24T07:20:31;17.70;99.90
9808;DHT22;4943;52.550;13.462;2023-04-24T07:23:00;17.60;99.90
9808;DHT22;4943;52.550;13.462;2023-04-24T07:25:28;17.60;99.90
9808;DHT22;4943;52.550;13.462;2023-04-24T07:27:59;17.50;99.90
9808;DHT22;4943;52.550;13.462;2023-04-24T07:30:27;17.50;99.90
9808;DHT22;4943;52.550;13.462;2023-04-24T07:32:56;17.40;99.90
9808;DHT22;4943;52.550;13.462;2023-04-24T07:35:24;17.40;99.90
9808;DHT22;4943;52.550;13.462;2023-04-24T07:37:53;17.40;99.90
9808;DHT22;4943;52.550;13.462;2023-04-24T07:40:22;17.50;99.90
9808;DHT22;4943;52.550;13.462;2023-04-24T07:42:50;17.60;99.90
9808;DHT22;4943;52.550;13.462;2023-04-24T07:45:19;17.70;99.90
9808;DHT22;4943;52.550;13.462;2023-04-24T07:47:48;17.90;99.90
9808;DHT22;4943;52.550;13.462;2023-04-24T07:50:16;18.10;99.90
9808;DHT22;4943;52.550;13.462;2023-04-24T07:52:44;18.20;99.90
9808;DHT22;4943;52.550;13.462;2023-04-24T07:55:12;18.20;99.90
9808;DHT22;4943;52.550;13.462;2023-04-24T07:57:41;18.20;99.90
9808;DHT22;4943;52.550;13.462;2023-04-24T08:00:10;18.20;99.90
9808;DHT22;4943;52.550;13.462;2023-04-24T08:02:39;18.10;99.90
9808;DHT22;4943;52.550;13.462;2023-04-24T08:05:08;18.10;99.90
9808;DHT22;4943;52.550;13.462;2023-04-24T08:07:37;18.10;99.90
9808;DHT22;4943;52.550;13.462;2023-04-24T08:10:06;18.20;99.90
9808;DHT22;4943;52.550;13.462;2023-04-24T08:12:35;18.30;99.90
9808;DHT22;4943;52.550;13.462;2023-04-24T08:15:03;18.40;99.90
9808;DHT22;4943;52.550;13.462;2023-04-24T08:17:32;18.50;99.90
9808;DHT22;4943;52.550;13.462;2023-04-24T08:20:01;18.60;99.90
9808;DHT22;4943;52.550;13.462;2023-04-24T08:22:30;18.70;99.90
9808;DHT22;4943;52.550;13.462;2023-04-24T08:24:59;18.80;99.90
9808;DHT22;4943;52.550;13.462;2023-04-24T08:27:28;18.90;99.90
9808;DHT22;4943;52.550;13.462;2023-04-24T08:29:57;19.00;99.90
9808;DHT22;4943;52.550;13.462;2023-04-24T08:32:26;19.00;99.90
9808;DHT22;4943;52.550;13.462;2023-04-24T08:34:55;19.00;99.90
9808;DHT22;4943;52.550;13.462;2023-04-24T08:37:26;19.00;99.90
9808;DHT22;4943;52.550;13.462;2023-04-24T08:39:54;19.10;99.90
9808;DHT22;4943;52.550;13.462;2023-04-24T08:42:22;19.30;99.90
9808;DHT22;4943;52.550;13.462;2023-04-24T08:44:51;19.50;99.90
9808;DHT22;4943;52.550;13.462;2023-04-24T08:47:20;19.70;99.90
9808;DHT22;4943;52.550;13.462;2023-04-24T08:49:49;19.80;99.90
9808;DHT22;4943;52.550;13.462;2023-04-24T08:52:18;19.90;99.90
9808;DHT22;4943;52.550;13.462;2023-04-24T08:54:48;19.90;99.90
9808;DHT22;4943;52.550;13.462;2023-04-24T08:57:17;19.90;99.90
9808;DHT22;4943;52.550;13.462;2023-04-24T08:59:45;20.10;99.90
9808;DHT22;4943;52.550;13.462;2023-04-24T09:02:14;20.30;99.90
9808;DHT22;4943;52.550;13.462;2023-04-24T09:04:44;20.40;99.90
9808;DHT22;4943;52.550;13.462;2023-04-24T09:07:14;20.50;99.90
9808;DHT22;4943;52.550;13.462;2023-04-24T09:09:44;20.60;99.90
9808;DHT22;4943;52.550;13.462;2023-04-24T09:12:14;20.60;99.90
9808;DHT22;4943;52.550;13.462;2023-04-24T09:14:42;20.60;99.90
9808;DHT22;4943;52.550;13.462;2023-04-24T09:17:12;20.60;99.90
9808;DHT22;4943;52.550;13.462;2023-04-24T09:19:40;20.70;99.90
9808;DHT22;4943;52.550;13.462;2023-04-24T09:22:09;20.90;99.90
9808;DHT22;4943;52.550;13.462;2023-04-24T09:24:38;21.00;99.90
9808;DHT22;4943;52.550;13.462;2023-04-24T09:27:07;21.20;99.90
9808;DHT22;4943;52.550;13.462;2023-04-24T09:29:38;21.30;99.70
9808;DHT22;4943;52.550;13.462;2023-04-24T09:32:22;21.30;99.10
9808;DHT22;4943;52.550;13.462;2023-04-24T09:35:09;21.20;98.90
9808;DHT22;4943;52.550;13.462;2023-04-24T09:37:38;21.00;99.00
9808;DHT22;4943;52.550;13.462;2023-04-24T09:40:09;20.80;99.10
9808;DHT22;4943;52.550;13.462;2023-04-24T09:42:39;20.60;99.20
9808;DHT22;4943;52.550;13.462;2023-04-24T09:45:11;20.50;99.50
9808;DHT22;4943;52.550;13.462;2023-04-24T09:47:42;20.50;99.80
9808;DHT22;4943;52.550;13.462;2023-04-24T09:50:12;20.50;99.90
9808;DHT22;4943;52.550;13.462;2023-04-24T09:52:42;20.60;99.90
9808;DHT22;4943;52.550;13.462;2023-04-24T09:55:16;20.80;99.90
9808;DHT22;4943;52.550;13.462;2023-04-24T09:57:52;21.00;99.90
9808;DHT22;4943;52.550;13.462;2023-04-24T10:00:26;21.10;99.90
9808;DHT22;4943;52.550;13.462;2023-04-24T10:02:57;21.20;99.90
9808;DHT22;4943;52.550;13.462;2023-04-24T10:05:27;21.40;99.90
9808;DHT22;4943;52.550;13.462;2023-04-24T10:08:01;21.50;99.80
9808;DHT22;4943;52.550;13.462;2023-04-24T10:10:30;21.80;99.90
9808;DHT22;4943;52.550;13.462;2023-04-24T10:12:59;21.90;99.90
9808;DHT22;4943;52.550;13.462;2023-04-24T10:15:28;22.10;99.60
9808;DHT22;4943;52.550;13.462;2023-04-24T10:17:58;22.20;99.10
9808;DHT22;4943;52.550;13.462;2023-04-24T10:20:28;22.20;98.80
9808;DHT22;4943;52.550;13.462;2023-04-24T10:22:58;22.30;98.80
9808;DHT22;4943;52.550;13.462;2023-04-24T10:25:28;22.20;98.20
9808;DHT22;4943;52.550;13.462;2023-04-24T10:27:58;22.10;98.40
9808;DHT22;4943;52.550;13.462;2023-04-24T10:30:30;22.10;98.60
9808;DHT22;4943;52.550;13.462;2023-04-24T10:33:02;22.10;98.40
9808;DHT22;4943;52.550;13.462;2023-04-24T10:35:31;22.10;98.20
9808;DHT22;4943;52.550;13.462;2023-04-24T10:38:03;22.10;98.30
9808;DHT22;4943;52.550;13.462;2023-04-24T10:40:35;22.10;98.40
9808;DHT22;4943;52.550;13.462;2023-04-24T10:43:04;22.10;98.60
9808;DHT22;4943;52.550;13.462;2023-04-24T10:45:36;22.20;98.60
9808;DHT22;4943;52.550;13.462;2023-04-24T10:48:05;22.30;98.50
9808;DHT22;4943;52.550;13.462;2023-04-24T10:50:45;22.40;98.30
9808;DHT22;4943;52.550;13.462;2023-04-24T10:53:16;22.30;97.80
9808;DHT22;4943;52.550;13.462;2023-04-24T10:55:46;22.10;97.90
9808;DHT22;4943;52.550;13.462;2023-04-24T10:58:15;22.00;97.80
9808;DHT22;4943;52.550;13.462;2023-04-24T11:00:56;21.80;97.30
9808;DHT22;4943;52.550;13.462;2023-04-24T11:03:27;21.80;97.90
9808;DHT22;4943;52.550;13.462;2023-04-24T11:05:58;21.90;98.20
9808;DHT22;4943;52.550;13.462;2023-04-24T11:08:29;21.90;97.70
9808;DHT22;4943;52.550;13.462;2023-04-24T11:11:00;21.90;97.40
9808;DHT22;4943;52.550;13.462;2023-04-24T11:16:38;21.90;97.80
9808;DHT22;4943;52.550;13.462;2023-04-24T11:19:19;22.00;98.10
9808;DHT22;4943;52.550;13.462;2023-04-24T11:21:54;22.10;98.00
9808;DHT22;4943;52.550;13.462;2023-04-24T11:24:28;22.30;98.20
9808;DHT22;4943;52.550;13.462;2023-04-24T11:26:59;22.50;98.20
9808;DHT22;4943;52.550;13.462;2023-04-24T11:29:46;22.80;97.50
9808;DHT22;4943;52.550;13.462;2023-04-24T11:32:17;22.90;97.20
9808;DHT22;4943;52.550;13.462;2023-04-24T11:34:47;22.80;96.90
9808;DHT22;4943;52.550;13.462;2023-04-24T11:37:16;22.80;97.00
9808;DHT22;4943;52.550;13.462;2023-04-24T11:39:44;22.80;97.10
9808;DHT22;4943;52.550;13.462;2023-04-24T11:42:14;22.80;96.90
9808;DHT22;4943;52.550;13.462;2023-04-24T11:44:43;22.80;96.70
9808;DHT22;4943;52.550;13.462;2023-04-24T11:47:11;22.60;96.50
9808;DHT22;4943;52.550;13.462;2023-04-24T11:49:41;22.40;96.40
9808;DHT22;4943;52.550;13.462;2023-04-24T11:52:09;22.10;96.60
9808;DHT22;4943;52.550;13.462;2023-04-24T11:54:38;21.70;97.10
9808;DHT22;4943;52.550;13.462;2023-04-24T11:57:14;21.40;97.80
9808;DHT22;4943;52.550;13.462;2023-04-24T11:59:42;21.30;98.50
9808;DHT22;4943;52.550;13.462;2023-04-24T12:02:20;21.30;98.70
9808;DHT22;4943;52.550;13.462;2023-04-24T12:04:51;21.40;98.70
9808;DHT22;4943;52.550;13.462;2023-04-24T12:07:20;21.40;98.60
9808;DHT22;4943;52.550;13.462;2023-04-24T12:09:56;21.50;98.80
9808;DHT22;4943;52.550;13.462;2023-04-24T12:12:27;21.60;98.60
9808;DHT22;4943;52.550;13.462;2023-04-24T12:14:56;21.70;98.40
9808;DHT22;4943;52.550;13.462;2023-04-24T12:17:27;21.60;98.30
9808;DHT22;4943;52.550;13.462;2023-04-24T12:20:01;21.60;98.40
9808;DHT22;4943;52.550;13.462;2023-04-24T12:22:43;21.40;98.30
9808;DHT22;4943;52.550;13.462;2023-04-24T12:25:13;21.30;98.50
9808;DHT22;4943;52.550;13.462;2023-04-24T12:27:41;21.20;98.70
9808;DHT22;4943;52.550;13.462;2023-04-24T12:30:12;21.10;98.90
9808;DHT22;4943;52.550;13.462;2023-04-24T12:32:42;21.10;98.90
9808;DHT22;4943;52.550;13.462;2023-04-24T12:35:11;21.10;99.00
9808;DHT22;4943;52.550;13.462;2023-04-24T12:37:42;21.10;99.10
9808;DHT22;4943;52.550;13.462;2023-04-24T12:40:14;21.20;99.10
9808;DHT22;4943;52.550;13.462;2023-04-24T12:42:44;21.30;98.80
9808;DHT22;4943;52.550;13.462;2023-04-24T12:45:13;21.30;98.60
9808;DHT22;4943;52.550;13.462;2023-04-24T12:47:42;21.40;98.30
9808;DHT22;4943;52.550;13.462;2023-04-24T12:50:12;21.40;97.70
9808;DHT22;4943;52.550;13.462;2023-04-24T12:52:41;21.40;97.30
9808;DHT22;4943;52.550;13.462;2023-04-24T12:55:13;21.40;97.40
9808;DHT22;4943;52.550;13.462;2023-04-24T12:58:19;21.50;97.00
9808;DHT22;4943;52.550;13.462;2023-04-24T13:00:47;21.60;96.40
9808;DHT22;4943;52.550;13.462;2023-04-24T13:03:15;21.70;96.00
9808;DHT22;4943;52.550;13.462;2023-04-24T13:05:45;21.80;95.00
9808;DHT22;4943;52.550;13.462;2023-04-24T13:08:13;21.90;94.80
9808;DHT22;4943;52.550;13.462;2023-04-24T13:10:41;22.00;94.10
9808;DHT22;4943;52.550;13.462;2023-04-24T13:13:10;22.10;94.20
9808;DHT22;4943;52.550;13.462;2023-04-24T13:15:38;22.20;93.60
9808;DHT22;4943;52.550;13.462;2023-04-24T13:18:06;22.40;93.40
9808;DHT22;4943;52.550;13.462;2023-04-24T13:20:34;22.50;93.40
9808;DHT22;4943;52.550;13.462;2023-04-24T13:23:04;22.60;92.10
9808;DHT22;4943;52.550;13.462;2023-04-24T13:25:35;22.60;91.60
9808;DHT22;4943;52.550;13.462;2023-04-24T13:28:04;22.60;91.10
9808;DHT22;4943;52.550;13.462;2023-04-24T13:30:32;22.60;91.30
9808;DHT22;4943;52.550;13.462;2023-04-24T13:33:00;22.60;90.80
9808;DHT22;4943;52.550;13.462;2023-04-24T13:35:28;22.70;91.10
9808;DHT22;4943;52.550;13.462;2023-04-24T13:37:58;22.80;90.20
9808;DHT22;4943;52.550;13.462;2023-04-24T13:40:29;22.80;90.40
9808;DHT22;4943;52.550;13.462;2023-04-24T13:42:57;22.80;90.40
9808;DHT22;4943;52.550;13.462;2023-04-24T13:45:25;22.70;90.00
9808;DHT22;4943;52.550;13.462;2023-04-24T13:47:53;22.60;90.10
9808;DHT22;4943;52.550;13.462;2023-04-24T13:50:22;22.50;89.90
9808;DHT22;4943;52.550;13.462;2023-04-24T13:52:50;22.30;89.70
9808;DHT22;4943;52.550;13.462;2023-04-24T13:55:18;22.30;90.00
9808;DHT22;4943;52.550;13.462;2023-04-24T13:57:48;22.20;88.40
9808;DHT22;4943;52.550;13.462;2023-04-24T14:00:17;22.10;89.00
9808;DHT22;4943;52.550;13.462;2023-04-24T14:02:45;22.10;88.70
9808;DHT22;4943;52.550;13.462;2023-04-24T14:05:14;22.10;88.40
9808;DHT22;4943;52.550;13.462;2023-04-24T14:07:43;22.10;88.40
9808;DHT22;4943;52.550;13.462;2023-04-24T14:10:11;22.10;88.50
9808;DHT22;4943;52.550;13.462;2023-04-24T14:12:40;22.20;88.40
9808;DHT22;4943;52.550;13.462;2023-04-24T14:15:10;22.30;88.80
9808;DHT22;4943;52.550;13.462;2023-04-24T14:17:40;22.40;87.50
9808;DHT22;4943;52.550;13.462;2023-04-24T14:20:09;22.30;87.30
9808;DHT22;4943;52.550;13.462;2023-04-24T14:22:37;22.30;87.70
9808;DHT22;4943;52.550;13.462;2023-04-24T14:25:06;22.40;88.30
9808;DHT22;4943;52.550;13.462;2023-04-24T14:27:34;22.50;87.70
9808;DHT22;4943;52.550;13.462;2023-04-24T14:30:03;22.50;87.10
9808;DHT22;4943;52.550;13.462;2023-04-24T14:32:33;22.40;86.30
9808;DHT22;4943;52.550;13.462;2023-04-24T14:35:01;22.40;86.50
9808;DHT22;4943;52.550;13.462;2023-04-24T14:37:29;22.40;86.70
9808;DHT22;4943;52.550;13.462;2023-04-24T14:39:58;22.30;86.00
9808;DHT22;4943;52.550;13.462;2023-04-24T14:42:46;22.30;85.90
9808;DHT22;4943;52.550;13.462;2023-04-24T14:45:14;22.20;85.80
9808;DHT22;4943;52.550;13.462;2023-04-24T14:47:44;22.30;85.30
9808;DHT22;4943;52.550;13.462;2023-04-24T14:50:12;22.30;85.30
9808;DHT22;4943;52.550;13.462;2023-04-24T14:52:40;22.30;85.10
9808;DHT22;4943;52.550;13.462;2023-04-24T14:55:09;22.30;84.90
9808;DHT22;4943;52.550;13.462;2023-04-24T14:57:37;22.30;85.00
9808;DHT22;4943;52.550;13.462;2023-04-24T15:00:07;22.30;84.90
9808;DHT22;4943;52.550;13.462;2023-04-24T15:02:38;22.20;84.40
9808;DHT22;4943;52.550;13.462;2023-04-24T15:05:12;22.20;84.50
9808;DHT22;4943;52.550;13.462;2023-04-24T15:07:41;22.10;84.50
9808;DHT22;4943;52.550;13.462;2023-04-24T15:10:10;21.90;84.30
9808;DHT22;4943;52.550;13.462;2023-04-24T15:12:38;21.80;84.60
9808;DHT22;4943;52.550;13.462;2023-04-24T15:15:08;21.80;85.10
9808;DHT22;4943;52.550;13.462;2023-04-24T15:17:36;21.80;85.30
9808;DHT22;4943;52.550;13.462;2023-04-24T15:20:05;21.90;86.00
9808;DHT22;4943;52.550;13.462;2023-04-24T15:22:35;22.00;85.20
9808;DHT22;4943;52.550;13.462;2023-04-24T15:25:04;22.10;84.90
9808;DHT22;4943;52.550;13.462;2023-04-24T15:27:40;22.10;84.60
9808;DHT22;4943;52.550;13.462;2023-04-24T15:30:09;22.10;84.60
9808;DHT22;4943;52.550;13.462;2023-04-24T15:32:38;22.00;83.90
9808;DHT22;4943;52.550;13.462;2023-04-24T15:35:07;22.00;84.50
9808;DHT22;4943;52.550;13.462;2023-04-24T15:37:38;22.10;84.80
9808;DHT22;4943;52.550;13.462;2023-04-24T15:40:07;22.10;84.70
9808;DHT22;4943;52.550;13.462;2023-04-24T15:42:37;22.10;83.80
9808;DHT22;4943;52.550;13.462;2023-04-24T15:45:06;21.90;83.40
9808;DHT22;4943;52.550;13.462;2023-04-24T15:47:34;21.80;83.50
9808;DHT22;4943;52.550;13.462;2023-04-24T15:50:03;21.60;82.80
9808;DHT22;4943;52.550;13.462;2023-04-24T15:52:31;21.40;82.80
9808;DHT22;4943;52.550;13.462;2023-04-24T15:55:03;21.20;83.30
9808;DHT22;4943;52.550;13.462;2023-04-24T15:57:31;21.10;83.90
9808;DHT22;4943;52.550;13.462;2023-04-24T16:00:00;21.00;84.00
9808;DHT22;4943;52.550;13.462;2023-04-24T16:02:28;20.90;84.40